Time;durP1;ratioP1;P1;durP2;ratioP2;P2;SDS_P1;SDS_P2;PMS_P1;PMS_P2;Temp;Humidity;BMP_temperature;BMP_pressure;BME280_temperature;BME280_humidity;BME280_pressure;Samples;Min_cycle;Max_cycle;Signal;HPM_P1;HPM_P2
2022/05/07 00:00:41;;;;;;;49.60;24.02;;;;;;;;;;5135539;27;20401;-56
2022/05/07 00:03:07;;;;;;;54.97;24.50;;;;;;;;;;5134941;27;20514;-56
2022/05/07 00:05:34;;;;;;;58.85;25.15;;;;;;;;;;5135504;27;20035;-55
2022/05/07 00:08:00;;;;;;;54.60;23.63;;;;;;;;;;5134311;27;20409;-56
2022/05/07 00:10:27;;;;;;;49.75;23.48;;;;;;;;;;5135047;27;20110;-56
2022/05/07 00:12:53;;;;;;;52.42;23.85;;;;;;;;;;5134859;27;20047;-56
2022/05/07 00:15:20;;;;;;;44.72;23.10;;;;;;;;;;5134338;27;20043;-55
2022/05/07 00:18:01;;;;;;;54.75;23.88;;;;;;;;;;5134760;27;20047;-56
2022/05/07 00:20:28;;;;;;;55.78;24.33;;;;;;;;;;5135279;27;20416;-56
2022/05/07 00:22:55;;;;;;;56.65;22.40;;;;;;;;;;5133887;27;20039;-56
2022/05/07 00:25:21;;;;;;;57.72;24.67;;;;;;;;;;5134840;27;20035;-55
2022/05/07 00:27:48;;;;;;;58.55;22.65;;;;;;;;;;5134296;27;20031;-56
2022/05/07 00:30:14;;;;;;;58.90;24.30;;;;;;;;;;5106797;27;20062;-56
2022/05/07 00:32:41;;;;;;;44.72;21.30;;;;;;;;;;5116692;27;20054;-56
2022/05/07 00:35:10;;;;;;;58.38;23.15;;;;;;;;;;5134095;27;20126;-56
2022/05/07 00:37:37;;;;;;;61.13;25.35;;;;;;;;;;5115180;27;20042;-56
2022/05/07 00:40:04;;;;;;;60.03;25.35;;;;;;;;;;5116030;27;20129;-56
2022/05/07 00:42:31;;;;;;;52.03;25.73;;;;;;;;;;5134375;27;20058;-56
2022/05/07 00:44:58;;;;;;;68.85;27.33;;;;;;;;;;5134226;27;20450;-56
2022/05/07 00:47:25;;;;;;;55.90;25.67;;;;;;;;;;5134938;27;20039;-56
2022/05/07 00:49:53;;;;;;;55.75;26.08;;;;;;;;;;5115702;27;20051;-56
2022/05/07 00:52:20;;;;;;;54.53;24.13;;;;;;;;;;5114981;27;20046;-56
2022/05/07 00:54:47;;;;;;;55.28;24.45;;;;;;;;;;5115734;27;20089;-56
2022/05/07 00:57:14;;;;;;;55.70;25.27;;;;;;;;;;5134001;27;20039;-55
2022/05/07 00:59:42;;;;;;;72.97;28.50;;;;;;;;;;5116107;27;20065;-56
2022/05/07 01:02:10;;;;;;;60.92;26.98;;;;;;;;;;5115398;27;20120;-56
2022/05/07 01:04:37;;;;;;;56.60;25.38;;;;;;;;;;5115353;27;20038;-56
2022/05/07 01:07:03;;;;;;;58.42;25.92;;;;;;;;;;5114710;27;20039;-56
2022/05/07 01:09:30;;;;;;;62.60;28.85;;;;;;;;;;5115116;27;20040;-56
2022/05/07 01:11:57;;;;;;;67.45;26.48;;;;;;;;;;5134166;27;20038;-56
2022/05/07 01:14:24;;;;;;;60.45;26.42;;;;;;;;;;5115326;27;20134;-56
2022/05/07 01:16:51;;;;;;;54.47;25.38;;;;;;;;;;5114922;27;20047;-56
2022/05/07 01:19:17;;;;;;;58.78;26.23;;;;;;;;;;5114891;27;20492;-56
2022/05/07 01:21:44;;;;;;;61.80;28.52;;;;;;;;;;5114558;27;20595;-56
2022/05/07 01:24:12;;;;;;;57.03;26.45;;;;;;;;;;5114992;27;20047;-57
2022/05/07 01:26:39;;;;;;;51.95;27.55;;;;;;;;;;5115321;27;20067;-57
2022/05/07 01:29:07;;;;;;;56.97;26.05;;;;;;;;;;5114744;27;20427;-56
2022/05/07 01:31:38;;;;;;;54.72;25.45;;;;;;;;;;5114645;27;20134;-56
2022/05/07 01:34:05;;;;;;;59.03;25.02;;;;;;;;;;5133150;27;20050;-56
2022/05/07 01:36:35;;;;;;;58.35;26.23;;;;;;;;;;5114211;27;20035;-56
2022/05/07 01:39:06;;;;;;;60.90;27.15;;;;;;;;;;5114813;27;20039;-56
2022/05/07 01:41:33;;;;;;;55.50;26.02;;;;;;;;;;5133619;27;20385;-56
2022/05/07 01:44:00;;;;;;;58.80;28.63;;;;;;;;;;5114693;27;20043;-55
2022/05/07 01:49:16;;;;;;;71.85;27.48;;;;;;;;;;5114355;27;20053;-56
2022/05/07 01:51:43;;;;;;;54.60;24.73;;;;;;;;;;5114062;27;20168;-56
2022/05/07 01:54:09;;;;;;;53.72;25.67;;;;;;;;;;5114524;27;20059;-56
2022/05/07 01:56:36;;;;;;;49.78;25.77;;;;;;;;;;5115031;27;20046;-56
2022/05/07 01:59:03;;;;;;;64.35;25.45;;;;;;;;;;5114024;27;20134;-56
2022/05/07 02:01:29;;;;;;;58.50;24.30;;;;;;;;;;5114461;27;20049;-56
2022/05/07 02:03:56;;;;;;;54.35;24.45;;;;;;;;;;5113983;27;20058;-56
2022/05/07 02:06:26;;;;;;;61.28;27.15;;;;;;;;;;5114017;27;20060;-56
2022/05/07 02:08:54;;;;;;;77.45;26.98;;;;;;;;;;5114236;27;20085;-56
2022/05/07 02:11:24;;;;;;;58.90;25.45;;;;;;;;;;5114808;27;20119;-56
2022/05/07 02:13:50;;;;;;;61.13;25.75;;;;;;;;;;5131858;27;20043;-56
2022/05/07 02:16:17;;;;;;;62.00;25.42;;;;;;;;;;5114198;28;20053;-56
2022/05/07 02:18:44;;;;;;;53.33;25.88;;;;;;;;;;5113955;28;20131;-56
2022/05/07 02:21:11;;;;;;;58.80;26.20;;;;;;;;;;5132098;27;20031;-57
2022/05/07 02:23:38;;;;;;;62.72;27.00;;;;;;;;;;5133311;27;20126;-56
2022/05/07 02:26:06;;;;;;;61.83;26.40;;;;;;;;;;5113880;28;20036;-56
2022/05/07 02:28:33;;;;;;;57.10;26.77;;;;;;;;;;5113642;28;20845;-56
2022/05/07 02:31:02;;;;;;;57.72;26.05;;;;;;;;;;5113888;28;20043;-56
2022/05/07 02:33:29;;;;;;;60.10;26.05;;;;;;;;;;5113687;28;20432;-56
2022/05/07 02:35:56;;;;;;;69.85;25.45;;;;;;;;;;5132126;28;20035;-56
2022/05/07 02:38:23;;;;;;;54.53;24.65;;;;;;;;;;5132802;28;20043;-56
2022/05/07 02:43:38;;;;;;;59.42;24.83;;;;;;;;;;5113582;28;20031;-56
2022/05/07 02:46:10;;;;;;;57.33;25.15;;;;;;;;;;5114252;28;20039;-56
2022/05/07 02:48:39;;;;;;;54.65;25.38;;;;;;;;;;5132191;28;20051;-56
2022/05/07 02:51:08;;;;;;;51.53;24.10;;;;;;;;;;5113626;28;20050;-56
2022/05/07 02:53:34;;;;;;;50.28;23.20;;;;;;;;;;5114433;28;20092;-56
2022/05/07 02:56:01;;;;;;;51.40;24.98;;;;;;;;;;5114073;28;20046;-56
2022/05/07 02:58:27;;;;;;;48.65;22.17;;;;;;;;;;5132020;27;20039;-56
2022/05/07 03:00:55;;;;;;;59.20;24.05;;;;;;;;;;5113332;28;20054;-56
2022/05/07 03:03:22;;;;;;;55.22;25.30;;;;;;;;;;5113875;28;20050;-56
2022/05/07 03:05:55;;;;;;;94.28;27.48;;;;;;;;;;5113304;28;20088;-57
2022/05/07 03:08:21;;;;;;;61.90;25.95;;;;;;;;;;5132874;28;20039;-56
2022/05/07 03:10:48;;;;;;;61.47;27.73;;;;;;;;;;5131861;28;20519;-56
2022/05/07 03:13:16;;;;;;;51.25;23.35;;;;;;;;;;5113464;28;20043;-55
2022/05/07 03:15:43;;;;;;;65.68;24.33;;;;;;;;;;5109605;28;20040;-56
2022/05/07 03:18:12;;;;;;;82.60;25.80;;;;;;;;;;5109802;28;20572;-57
2022/05/07 03:20:40;;;;;;;57.70;24.17;;;;;;;;;;5112352;28;20097;-56
2022/05/07 03:23:08;;;;;;;57.53;22.90;;;;;;;;;;5109884;28;20126;-56
2022/05/07 03:25:35;;;;;;;63.72;24.73;;;;;;;;;;5113161;28;20032;-56
2022/05/07 03:28:04;;;;;;;61.25;25.10;;;;;;;;;;5113736;28;20047;-56
2022/05/07 03:30:31;;;;;;;50.45;22.90;;;;;;;;;;5113835;28;20066;-55
2022/05/07 03:33:01;;;;;;;55.58;23.52;;;;;;;;;;5113805;28;20051;-56
2022/05/07 03:35:29;;;;;;;63.42;23.77;;;;;;;;;;5114237;28;20035;-55
2022/05/07 03:37:57;;;;;;;53.60;22.65;;;;;;;;;;5113320;28;20055;-56
2022/05/07 03:40:25;;;;;;;63.53;23.45;;;;;;;;;;5113362;28;20463;-56
2022/05/07 03:42:51;;;;;;;39.85;20.35;;;;;;;;;;5115193;28;20113;-55
2022/05/07 03:45:18;;;;;;;70.90;23.48;;;;;;;;;;5114559;28;20401;-56
2022/05/07 03:47:45;;;;;;;48.88;21.17;;;;;;;;;;5114205;28;20063;-56
2022/05/07 03:50:11;;;;;;;41.58;21.00;;;;;;;;;;5113654;28;20035;-56
2022/05/07 03:53:40;;;;;;;41.80;20.33;;;;;;;;;;5113114;28;20036;-56
2022/05/07 03:55:41;;;;;;;45.42;20.85;;;;;;;;;;5091747;28;20080;-55
2022/05/07 03:58:17;;;;;;;39.30;19.83;;;;;;;;;;5113253;28;20059;-56
2022/05/07 04:00:44;;;;;;;121.20;25.83;;;;;;;;;;5113047;28;20046;-56
2022/05/07 04:03:12;;;;;;;54.50;22.95;;;;;;;;;;5113592;28;20062;-56
2022/05/07 04:05:48;;;;;;;63.85;21.77;;;;;;;;;;5113189;28;20040;-57
2022/05/07 04:08:17;;;;;;;47.58;21.33;;;;;;;;;;5113413;28;20091;-56
2022/05/07 04:10:44;;;;;;;71.97;21.73;;;;;;;;;;5112894;28;20032;-56
2022/05/07 04:13:16;;;;;;;45.88;21.23;;;;;;;;;;5096682;28;20532;-57
2022/05/07 04:15:43;;;;;;;44.88;22.73;;;;;;;;;;5129148;27;20055;-56
2022/05/07 04:18:11;;;;;;;38.80;21.83;;;;;;;;;;5116682;27;20145;-57
2022/05/07 04:20:39;;;;;;;48.03;21.70;;;;;;;;;;5116728;27;20485;-57
2022/05/07 04:23:09;;;;;;;41.35;18.33;;;;;;;;;;5115859;27;20142;-56
2022/05/07 04:25:41;;;;;;;39.17;18.50;;;;;;;;;;5115888;27;20035;-56
2022/05/07 04:28:10;;;;;;;32.65;16.52;;;;;;;;;;5115975;27;20104;-56
2022/05/07 04:30:38;;;;;;;32.80;17.05;;;;;;;;;;5115869;27;20051;-57
2022/05/07 04:33:06;;;;;;;48.13;16.75;;;;;;;;;;5134438;27;20040;-56
2022/05/07 04:35:33;;;;;;;39.30;16.65;;;;;;;;;;5116475;27;20554;-57
2022/05/07 04:38:03;;;;;;;262.77;29.27;;;;;;;;;;5115385;27;20437;-56
2022/05/07 04:40:30;;;;;;;32.80;16.35;;;;;;;;;;5134076;27;20061;-56
2022/05/07 04:42:57;;;;;;;45.42;17.73;;;;;;;;;;5115760;27;20500;-56
2022/05/07 04:45:25;;;;;;;38.78;16.15;;;;;;;;;;5115788;27;20035;-56
2022/05/07 04:48:01;;;;;;;51.33;18.52;;;;;;;;;;5115775;27;20047;-57
2022/05/07 04:50:31;;;;;;;36.38;17.85;;;;;;;;;;5116614;27;20074;-56
2022/05/07 04:53:14;;;;;;;36.80;16.42;;;;;;;;;;5115682;27;20042;-56
2022/05/07 04:55:41;;;;;;;40.60;17.55;;;;;;;;;;5115373;27;20404;-56
2022/05/07 04:58:09;;;;;;;31.90;17.20;;;;;;;;;;5115394;27;20057;-56
2022/05/07 05:00:39;;;;;;;48.17;17.90;;;;;;;;;;5115147;27;20500;-56
2022/05/07 05:03:16;;;;;;;33.53;15.90;;;;;;;;;;5134342;27;20043;-57
2022/05/07 05:05:53;;;;;;;38.22;16.83;;;;;;;;;;5112055;27;20535;-57
2022/05/07 05:08:41;;;;;;;31.45;15.52;;;;;;;;;;5115874;27;20046;-57
2022/05/07 05:11:08;;;;;;;26.75;16.17;;;;;;;;;;5104517;28;20047;-56
2022/05/07 05:13:35;;;;;;;26.20;14.82;;;;;;;;;;5111716;27;20127;-56
2022/05/07 05:16:02;;;;;;;33.55;17.02;;;;;;;;;;5107778;28;20529;-56
2022/05/07 05:18:38;;;;;;;32.60;15.93;;;;;;;;;;5111790;28;20061;-56
2022/05/07 05:21:04;;;;;;;66.03;18.08;;;;;;;;;;5111297;28;20046;-56
2022/05/07 05:23:48;;;;;;;44.67;15.57;;;;;;;;;;5111913;28;20451;-57
2022/05/07 05:26:15;;;;;;;27.38;15.05;;;;;;;;;;5111852;28;20047;-57
2022/05/07 05:28:47;;;;;;;23.88;15.23;;;;;;;;;;5095140;28;20043;-57
2022/05/07 05:31:15;;;;;;;30.83;15.23;;;;;;;;;;5111376;28;20050;-57
2022/05/07 05:33:47;;;;;;;27.95;15.27;;;;;;;;;;5111837;28;20047;-58
2022/05/07 05:36:30;;;;;;;26.30;14.63;;;;;;;;;;5110886;28;20040;-58
2022/05/07 05:38:57;;;;;;;31.38;15.55;;;;;;;;;;5111361;28;20497;-58
2022/05/07 05:41:27;;;;;;;27.88;14.57;;;;;;;;;;5111558;28;20050;-58
2022/05/07 05:43:53;;;;;;;29.73;15.25;;;;;;;;;;5112398;28;20100;-58
2022/05/07 05:46:20;;;;;;;24.33;14.15;;;;;;;;;;5111393;28;20131;-57
2022/05/07 05:48:48;;;;;;;54.83;17.08;;;;;;;;;;5110330;28;20058;-57
2022/05/07 05:51:15;;;;;;;31.08;16.23;;;;;;;;;;5110791;28;20046;-58
2022/05/07 05:53:44;;;;;;;39.00;16.48;;;;;;;;;;5111658;28;20503;-58
2022/05/07 05:56:12;;;;;;;34.63;16.60;;;;;;;;;;5110947;28;20467;-58
2022/05/07 05:58:46;;;;;;;28.95;15.75;;;;;;;;;;5111060;28;20039;-58
2022/05/07 06:01:15;;;;;;;34.92;16.65;;;;;;;;;;5110650;28;20456;-58
2022/05/07 06:03:54;;;;;;;27.00;14.02;;;;;;;;;;5111142;28;20043;-58
2022/05/07 06:06:20;;;;;;;31.27;14.23;;;;;;;;;;5111680;28;20062;-58
2022/05/07 06:08:47;;;;;;;27.45;14.48;;;;;;;;;;5111690;28;20044;-57
2022/05/07 06:11:14;;;;;;;26.08;12.82;;;;;;;;;;5112140;28;20067;-58
2022/05/07 06:13:43;;;;;;;40.70;14.68;;;;;;;;;;5109914;28;20077;-58
2022/05/07 06:16:09;;;;;;;26.20;14.00;;;;;;;;;;5131085;27;20051;-58
2022/05/07 06:18:36;;;;;;;53.72;15.27;;;;;;;;;;5114490;27;20043;-58
2022/05/07 06:21:07;;;;;;;46.72;14.90;;;;;;;;;;5109224;28;20138;-58
2022/05/07 06:23:38;;;;;;;74.70;15.88;;;;;;;;;;5101439;28;20055;-58
2022/05/07 06:28:53;;;;;;;33.03;11.73;;;;;;;;;;5113424;28;20046;-58
2022/05/07 06:31:20;;;;;;;32.00;11.40;;;;;;;;;;5113341;28;20038;-58
2022/05/07 06:33:46;;;;;;;30.63;10.93;;;;;;;;;;5113482;28;20039;-58
2022/05/07 06:36:13;;;;;;;29.35;11.43;;;;;;;;;;5113002;28;20047;-58
2022/05/07 06:38:41;;;;;;;71.47;13.43;;;;;;;;;;5114172;28;20050;-58
2022/05/07 06:41:10;;;;;;;32.13;10.68;;;;;;;;;;5111487;28;20138;-58
2022/05/07 06:43:53;;;;;;;25.30;9.93;;;;;;;;;;5109784;28;20381;-58
2022/05/07 06:46:25;;;;;;;27.37;9.63;;;;;;;;;;5110112;28;20040;-58
2022/05/07 06:49:00;;;;;;;36.58;11.05;;;;;;;;;;5109224;28;20054;-58
2022/05/07 06:51:36;;;;;;;27.98;9.70;;;;;;;;;;5112817;28;20039;-58
2022/05/07 06:54:03;;;;;;;31.23;9.20;;;;;;;;;;5131890;28;20515;-58
2022/05/07 06:56:29;;;;;;;25.85;8.40;;;;;;;;;;5131974;27;20036;-58
2022/05/07 06:58:56;;;;;;;36.38;9.38;;;;;;;;;;5132294;27;20043;-58
2022/05/07 07:01:22;;;;;;;19.40;7.70;;;;;;;;;;5135609;27;20039;-58
2022/05/07 07:03:49;;;;;;;24.42;9.25;;;;;;;;;;5135152;27;20070;-58
2022/05/07 07:06:17;;;;;;;24.90;7.57;;;;;;;;;;5135273;27;20058;-58
2022/05/07 07:08:44;;;;;;;35.05;8.60;;;;;;;;;;5135880;27;20061;-58
2022/05/07 07:11:10;;;;;;;20.63;6.65;;;;;;;;;;5135421;27;20493;-58
2022/05/07 07:13:37;;;;;;;14.95;6.07;;;;;;;;;;5135549;27;20569;-58
2022/05/07 07:16:03;;;;;;;36.75;8.90;;;;;;;;;;5135122;27;20062;-58
2022/05/07 07:18:31;;;;;;;19.48;6.43;;;;;;;;;;5135522;27;20062;-58
2022/05/07 07:20:57;;;;;;;27.38;7.72;;;;;;;;;;5135121;27;20074;-58
2022/05/07 07:23:24;;;;;;;16.20;6.53;;;;;;;;;;5135685;27;20035;-58
2022/05/07 07:25:50;;;;;;;24.65;7.57;;;;;;;;;;5135321;27;20035;-58
2022/05/07 07:28:17;;;;;;;20.58;6.57;;;;;;;;;;5134843;27;20382;-58
2022/05/07 07:30:44;;;;;;;16.85;6.28;;;;;;;;;;5134195;27;20055;-60
2022/05/07 07:33:12;;;;;;;24.80;6.45;;;;;;;;;;5134427;27;20035;-58
2022/05/07 07:35:39;;;;;;;108.18;11.60;;;;;;;;;;5135776;27;20062;-58
2022/05/07 07:38:07;;;;;;;22.88;6.35;;;;;;;;;;5134363;27;20062;-58
2022/05/07 07:40:34;;;;;;;134.95;13.75;;;;;;;;;;5134709;27;20039;-58
2022/05/07 07:43:02;;;;;;;15.20;5.45;;;;;;;;;;5134817;27;20069;-58
2022/05/07 07:48:14;;;;;;;17.77;5.75;;;;;;;;;;5134569;27;20047;-58
2022/05/07 07:50:41;;;;;;;25.75;5.97;;;;;;;;;;5134948;27;20042;-58
2022/05/07 07:53:09;;;;;;;32.95;6.85;;;;;;;;;;5134020;27;20393;-58
2022/05/07 07:55:36;;;;;;;40.28;7.63;;;;;;;;;;5134790;27;20054;-58
2022/05/07 07:58:07;;;;;;;25.17;7.78;;;;;;;;;;5134556;27;20071;-57
2022/05/07 08:00:35;;;;;;;23.63;6.78;;;;;;;;;;5134486;27;20031;-58
2022/05/07 08:03:05;;;;;;;62.47;9.05;;;;;;;;;;5134483;27;20126;-58
2022/05/07 08:05:32;;;;;;;23.92;5.85;;;;;;;;;;5135192;27;20492;-58
2022/05/07 08:13:31;;;;;;;36.58;6.90;;;;;;;;;;5134481;27;20509;-58
2022/05/07 08:15:57;;;;;;;20.15;5.38;;;;;;;;;;5133615;27;20054;-58
2022/05/07 08:18:24;;;;;;;20.30;5.15;;;;;;;;;;5115682;27;20401;-58
2022/05/07 08:20:50;;;;;;;31.02;6.57;;;;;;;;;;5134453;27;20468;-59
2022/05/07 08:23:17;;;;;;;35.53;6.20;;;;;;;;;;5134335;27;20371;-59
2022/05/07 08:25:43;;;;;;;17.73;5.28;;;;;;;;;;5133988;27;20396;-59
2022/05/07 08:28:10;;;;;;;20.75;5.45;;;;;;;;;;5134033;27;20054;-59
2022/05/07 08:30:42;;;;;;;31.27;4.65;;;;;;;;;;5133915;27;20472;-59
2022/05/07 08:33:09;;;;;;;25.30;5.53;;;;;;;;;;5134085;27;20049;-60
2022/05/07 08:35:35;;;;;;;16.02;4.47;;;;;;;;;;5134286;27;20049;-59
2022/05/07 08:38:02;;;;;;;17.40;4.30;;;;;;;;;;5133471;27;20045;-59
2022/05/07 08:40:28;;;;;;;11.52;3.42;;;;;;;;;;5133784;27;20031;-59
2022/05/07 08:42:55;;;;;;;17.40;3.65;;;;;;;;;;5133726;27;20043;-59
2022/05/07 08:45:22;;;;;;;24.13;4.47;;;;;;;;;;5133301;27;20084;-59
2022/05/07 08:47:53;;;;;;;15.02;3.40;;;;;;;;;;5134795;27;20567;-59
2022/05/07 08:50:20;;;;;;;12.77;3.42;;;;;;;;;;5133423;27;20039;-59
2022/05/07 08:52:47;;;;;;;63.72;6.15;;;;;;;;;;5133132;27;20035;-59
2022/05/07 08:55:15;;;;;;;11.18;3.67;;;;;;;;;;5133083;27;20057;-59
2022/05/07 08:57:43;;;;;;;30.08;4.05;;;;;;;;;;5133280;27;20489;-59
2022/05/07 09:00:11;;;;;;;89.85;7.65;;;;;;;;;;5133347;27;20519;-59
2022/05/07 09:02:41;;;;;;;9.40;3.40;;;;;;;;;;5133966;27;20063;-59
2022/05/07 09:05:12;;;;;;;11.25;3.28;;;;;;;;;;5132807;27;20062;-58
2022/05/07 09:07:41;;;;;;;17.52;3.55;;;;;;;;;;5132924;27;20035;-59
2022/05/07 09:10:13;;;;;;;36.38;4.85;;;;;;;;;;5132973;27;20035;-59
2022/05/07 09:12:40;;;;;;;11.43;3.05;;;;;;;;;;5133750;27;20035;-59
2022/05/07 09:15:07;;;;;;;17.95;3.78;;;;;;;;;;5132342;27;20070;-59
2022/05/07 09:17:34;;;;;;;25.08;4.03;;;;;;;;;;5133830;27;20042;-59
2022/05/07 09:20:12;;;;;;;11.35;2.55;;;;;;;;;;5132852;27;20043;-59
2022/05/07 09:22:49;;;;;;;27.90;4.05;;;;;;;;;;5132175;27;20035;-59
2022/05/07 09:25:22;;;;;;;16.63;3.15;;;;;;;;;;5132882;27;20409;-58
2022/05/07 09:27:59;;;;;;;212.57;15.95;;;;;;;;;;5114409;27;20062;-59
2022/05/07 09:30:30;;;;;;;127.57;10.02;;;;;;;;;;5132715;27;20058;-59
2022/05/07 09:32:57;;;;;;;72.57;6.35;;;;;;;;;;5132767;27;20081;-59
2022/05/07 09:38:12;;;;;;;128.15;11.25;;;;;;;;;;5132767;27;20042;-59
2022/05/07 09:40:40;;;;;;;978.47;103.63;;;;;;;;;;5132483;27;20067;-59
2022/05/07 09:43:09;;;;;;;28.15;3.60;;;;;;;;;;5132332;27;20043;-59
2022/05/07 09:45:37;;;;;;;18.15;2.53;;;;;;;;;;5132696;27;20106;-58
2022/05/07 09:48:07;;;;;;;21.65;2.88;;;;;;;;;;5132271;27;20047;-59
2022/05/07 09:58:34;;;;;;;11.50;2.75;;;;;;;;;;5131733;27;20484;-58
2022/05/07 10:01:08;;;;;;;14.93;2.25;;;;;;;;;;5132095;27;20405;-58
2022/05/07 10:03:54;;;;;;;17.10;2.50;;;;;;;;;;5131526;27;20762;-59
2022/05/07 10:06:23;;;;;;;12.05;2.20;;;;;;;;;;5131747;27;20047;-58
2022/05/07 10:08:56;;;;;;;19.00;2.70;;;;;;;;;;5128484;27;20043;-58
2022/05/07 10:11:23;;;;;;;8.38;2.03;;;;;;;;;;5132262;27;20112;-59
2022/05/07 10:13:53;;;;;;;10.23;2.08;;;;;;;;;;5132069;27;20051;-58
2022/05/07 10:16:21;;;;;;;102.72;7.43;;;;;;;;;;5091459;28;20040;-58
2022/05/07 10:18:49;;;;;;;62.47;5.63;;;;;;;;;;5091277;28;20072;-58
2022/05/07 10:21:19;;;;;;;16.05;2.35;;;;;;;;;;5091259;28;20036;-58
2022/05/07 10:23:50;;;;;;;103.18;8.55;;;;;;;;;;5091088;28;20055;-58
2022/05/07 10:26:17;;;;;;;15.65;2.15;;;;;;;;;;5091286;28;20498;-59
2022/05/07 10:28:43;;;;;;;89.28;7.70;;;;;;;;;;5091436;28;20040;-57
2022/05/07 10:31:22;;;;;;;26.98;3.78;;;;;;;;;;5091437;28;20040;-58
2022/05/07 10:33:50;;;;;;;26.90;3.35;;;;;;;;;;5092141;28;20639;-58
2022/05/07 10:36:16;;;;;;;22.20;2.50;;;;;;;;;;5095622;28;22694;-58
2022/05/07 10:38:45;;;;;;;11.52;2.10;;;;;;;;;;5096325;28;20048;-59
2022/05/07 10:41:15;;;;;;;13.15;2.10;;;;;;;;;;5095483;28;20404;-58
2022/05/07 10:43:42;;;;;;;23.77;2.17;;;;;;;;;;5095427;28;20058;-58
2022/05/07 10:46:10;;;;;;;20.13;2.22;;;;;;;;;;5095311;28;20032;-58
2022/05/07 10:48:45;;;;;;;23.88;2.95;;;;;;;;;;5094780;28;20036;-58
2022/05/07 10:51:28;;;;;;;34.00;3.83;;;;;;;;;;5094702;28;20058;-58
2022/05/07 10:54:00;;;;;;;79.47;7.05;;;;;;;;;;5095523;28;20060;-58
2022/05/07 10:56:28;;;;;;;9.93;1.75;;;;;;;;;;5095553;28;20505;-59
2022/05/07 10:58:57;;;;;;;43.53;4.68;;;;;;;;;;5094926;28;20051;-59
2022/05/07 11:01:24;;;;;;;40.72;3.63;;;;;;;;;;5094457;28;20445;-58
2022/05/07 11:04:00;;;;;;;15.65;1.92;;;;;;;;;;5094431;28;20071;-58
2022/05/07 11:06:27;;;;;;;13.88;1.75;;;;;;;;;;5093964;28;20040;-58
2022/05/07 11:08:53;;;;;;;10.88;2.13;;;;;;;;;;5095643;28;20050;-58
2022/05/07 11:11:20;;;;;;;41.00;5.18;;;;;;;;;;5094675;28;20049;-58
2022/05/07 11:13:47;;;;;;;13.02;2.22;;;;;;;;;;5094618;28;20044;-58
2022/05/07 11:16:16;;;;;;;13.73;2.85;;;;;;;;;;5133833;27;20039;-58
2022/05/07 11:18:54;;;;;;;8.20;1.40;;;;;;;;;;5135676;27;20035;-59
2022/05/07 11:21:21;;;;;;;17.88;2.35;;;;;;;;;;5135271;27;20039;-58
2022/05/07 11:23:54;;;;;;;14.18;1.95;;;;;;;;;;5131633;27;20035;-58
2022/05/07 11:26:21;;;;;;;8.35;1.63;;;;;;;;;;5135373;27;20057;-58
2022/05/07 11:28:48;;;;;;;111.13;9.13;;;;;;;;;;5135375;27;20047;-58
2022/05/07 11:31:31;;;;;;;18.52;2.47;;;;;;;;;;5134581;27;20041;-58
2022/05/07 11:34:04;;;;;;;20.58;1.85;;;;;;;;;;5135351;27;20569;-58
2022/05/07 11:36:31;;;;;;;10.65;1.70;;;;;;;;;;5135193;27;20093;-58
2022/05/07 11:38:59;;;;;;;14.18;2.25;;;;;;;;;;5135559;27;20046;-58
2022/05/07 11:41:25;;;;;;;18.42;2.30;;;;;;;;;;5135677;27;20704;-58
2022/05/07 11:47:07;;;;;;;41.28;2.85;;;;;;;;;;5134448;27;20035;-58
2022/05/07 11:49:33;;;;;;;164.02;13.57;;;;;;;;;;5134831;27;20047;-58
2022/05/07 11:52:10;;;;;;;19.80;3.15;;;;;;;;;;5134760;27;20110;-58
2022/05/07 11:54:48;;;;;;;17.58;2.90;;;;;;;;;;5135118;27;20146;-58
2022/05/07 11:57:25;;;;;;;14.50;2.97;;;;;;;;;;5135434;27;20444;-57
2022/05/07 11:59:51;;;;;;;15.20;3.08;;;;;;;;;;5135199;27;20050;-58
2022/05/07 12:02:17;;;;;;;8.80;2.03;;;;;;;;;;5134874;27;20046;-58
2022/05/07 12:04:44;;;;;;;12.60;2.90;;;;;;;;;;5134110;27;20054;-58
2022/05/07 12:07:12;;;;;;;16.73;2.95;;;;;;;;;;5133562;27;20126;-58
2022/05/07 12:09:38;;;;;;;24.02;2.55;;;;;;;;;;5134109;27;20049;-58
2022/05/07 12:12:06;;;;;;;21.27;3.53;;;;;;;;;;5134333;27;20454;-57
2022/05/07 12:14:33;;;;;;;18.25;2.85;;;;;;;;;;5134367;27;20086;-58
2022/05/07 12:19:53;;;;;;;417.50;35.63;;;;;;;;;;5050506;28;20053;-58
2022/05/07 12:30:42;;;;;;;29.35;3.10;;;;;;;;;;5051052;28;20048;-59
2022/05/07 12:33:09;;;;;;;25.00;3.13;;;;;;;;;;5050805;28;20077;-58
2022/05/07 12:35:35;;;;;;;16.92;2.55;;;;;;;;;;5050900;28;20451;-58
2022/05/07 12:38:02;;;;;;;14.85;2.63;;;;;;;;;;5050072;28;20503;-58
2022/05/07 12:40:28;;;;;;;5.65;1.40;;;;;;;;;;5049997;28;20049;-58
2022/05/07 12:42:57;;;;;;;22.75;3.38;;;;;;;;;;5050347;28;20037;-58
2022/05/07 12:45:24;;;;;;;139.73;11.93;;;;;;;;;;5050738;28;20045;-58
2022/05/07 12:47:51;;;;;;;16.63;2.55;;;;;;;;;;5051102;28;20127;-59
2022/05/07 12:50:17;;;;;;;12.93;2.20;;;;;;;;;;5050395;28;20061;-58
2022/05/07 12:52:44;;;;;;;8.77;1.95;;;;;;;;;;5050492;28;20136;-58
2022/05/07 12:55:11;;;;;;;107.03;7.13;;;;;;;;;;5050323;28;20144;-58
2022/05/07 12:57:38;;;;;;;19.83;3.05;;;;;;;;;;5111932;27;20116;-58
2022/05/07 13:00:04;;;;;;;159.30;11.88;;;;;;;;;;5124686;27;20052;-58
2022/05/07 13:02:34;;;;;;;7.88;1.52;;;;;;;;;;5134110;27;20043;-59
2022/05/07 13:05:03;;;;;;;7.13;1.42;;;;;;;;;;5133226;27;20647;-58
2022/05/07 13:07:30;;;;;;;18.63;2.50;;;;;;;;;;5132574;27;20126;-58
2022/05/07 13:09:56;;;;;;;37.17;4.68;;;;;;;;;;5133318;27;20492;-58
2022/05/07 13:12:24;;;;;;;356.65;26.80;;;;;;;;;;5132669;27;20066;-58
2022/05/07 13:14:55;;;;;;;26.08;3.10;;;;;;;;;;5133446;27;20051;-58
2022/05/07 13:17:23;;;;;;;15.00;2.40;;;;;;;;;;5133283;27;20049;-58
2022/05/07 13:19:50;;;;;;;7.50;1.80;;;;;;;;;;5132884;27;20058;-58
2022/05/07 13:22:16;;;;;;;17.85;2.78;;;;;;;;;;5132668;27;20053;-58
2022/05/07 13:24:42;;;;;;;12.18;1.88;;;;;;;;;;5133336;27;20042;-58
2022/05/07 13:27:09;;;;;;;24.52;3.28;;;;;;;;;;5132610;27;20409;-58
2022/05/07 13:29:35;;;;;;;15.50;2.75;;;;;;;;;;5133244;27;20035;-59
2022/05/07 13:32:03;;;;;;;14.82;2.60;;;;;;;;;;5132737;27;20039;-59
2022/05/07 13:34:32;;;;;;;11.55;1.88;;;;;;;;;;5132538;27;20485;-59
2022/05/07 13:36:58;;;;;;;6.85;1.90;;;;;;;;;;5132464;27;20031;-59
2022/05/07 13:39:26;;;;;;;18.45;3.15;;;;;;;;;;5132361;27;20043;-59
2022/05/07 13:41:52;;;;;;;21.83;2.80;;;;;;;;;;5132601;27;20400;-59
2022/05/07 13:44:19;;;;;;;226.07;16.77;;;;;;;;;;5132805;27;20118;-59
2022/05/07 13:46:45;;;;;;;20.67;2.83;;;;;;;;;;5132759;27;20045;-59
2022/05/07 13:49:12;;;;;;;13.27;2.53;;;;;;;;;;5132526;27;20473;-60
2022/05/07 13:51:38;;;;;;;43.25;18.30;;;;;;;;;;5132448;27;20121;-60
2022/05/07 13:54:04;;;;;;;222.80;26.88;;;;;;;;;;5132630;27;20412;-61
2022/05/07 13:56:31;;;;;;;14.85;6.18;;;;;;;;;;5133294;27;20035;-60
2022/05/07 13:58:57;;;;;;;132.18;11.38;;;;;;;;;;5132533;27;20045;-60
2022/05/07 14:01:24;;;;;;;170.32;14.75;;;;;;;;;;5132508;27;20557;-60
2022/05/07 14:03:51;;;;;;;30.42;4.55;;;;;;;;;;5132622;27;20057;-61
2022/05/07 14:06:19;;;;;;;19.67;7.38;;;;;;;;;;5132382;27;20072;-61
2022/05/07 14:08:46;;;;;;;27.17;3.78;;;;;;;;;;5132947;27;20043;-61
2022/05/07 14:11:14;;;;;;;40.03;5.60;;;;;;;;;;5132565;27;20039;-60
2022/05/07 14:13:41;;;;;;;13.60;2.15;;;;;;;;;;5132351;27;20489;-60
2022/05/07 14:16:08;;;;;;;14.20;2.70;;;;;;;;;;5132727;27;20097;-60
2022/05/07 14:18:35;;;;;;;20.58;2.42;;;;;;;;;;5132358;27;20039;-60
2022/05/07 14:21:02;;;;;;;18.90;3.08;;;;;;;;;;5132501;27;20078;-60
2022/05/07 14:23:28;;;;;;;9.20;1.95;;;;;;;;;;5132721;27;20039;-59
2022/05/07 14:25:57;;;;;;;10.68;1.70;;;;;;;;;;5132458;27;20412;-61
2022/05/07 14:28:24;;;;;;;7.63;2.03;;;;;;;;;;5132468;27;20037;-60
2022/05/07 14:30:50;;;;;;;35.50;3.75;;;;;;;;;;5132437;27;20035;-59
2022/05/07 14:33:17;;;;;;;14.13;2.65;;;;;;;;;;5132317;27;20529;-60
2022/05/07 14:35:44;;;;;;;14.15;2.47;;;;;;;;;;5132798;27;20059;-59
2022/05/07 14:38:11;;;;;;;178.93;11.20;;;;;;;;;;5132015;27;20043;-60
2022/05/07 14:40:38;;;;;;;537.97;38.95;;;;;;;;;;5132593;27;20039;-60
2022/05/07 14:43:05;;;;;;;14.15;3.08;;;;;;;;;;5132376;27;20045;-60
2022/05/07 14:45:32;;;;;;;30.75;3.30;;;;;;;;;;5132264;27;20064;-60
2022/05/07 14:47:59;;;;;;;9.30;1.83;;;;;;;;;;5132651;27;20042;-60
2022/05/07 14:50:26;;;;;;;8.45;1.52;;;;;;;;;;5132209;27;20043;-60
2022/05/07 14:52:53;;;;;;;24.77;3.63;;;;;;;;;;5131721;27;20405;-60
2022/05/07 14:55:21;;;;;;;10.95;2.22;;;;;;;;;;5132505;27;20385;-60
2022/05/07 14:57:47;;;;;;;11.27;2.63;;;;;;;;;;5114240;27;20074;-59
2022/05/07 15:00:14;;;;;;;12.68;2.83;;;;;;;;;;5132365;27;20592;-59
2022/05/07 15:02:42;;;;;;;5.63;1.85;;;;;;;;;;5132852;27;20074;-59
2022/05/07 15:05:10;;;;;;;10.30;1.92;;;;;;;;;;5132166;27;20047;-59
2022/05/07 15:07:37;;;;;;;13.55;2.30;;;;;;;;;;5131514;27;20043;-59
2022/05/07 15:12:52;;;;;;;21.25;3.45;;;;;;;;;;5131799;28;20050;-59
2022/05/07 15:15:19;;;;;;;25.65;3.35;;;;;;;;;;5131776;27;20059;-58